createdAt,value
2019-06-07T00:01:58.166Z,20.60
2019-06-07T00:04:29.247Z,20.54
2019-06-07T00:07:00.514Z,20.54
2019-06-07T00:09:31.604Z,20.54
2019-06-07T00:12:02.932Z,20.48
2019-06-07T00:14:34.352Z,20.45
2019-06-07T00:17:05.547Z,20.47
2019-06-07T00:19:36.478Z,20.51
2019-06-07T00:22:16.552Z,20.43
2019-06-07T00:24:40.322Z,20.44
2019-06-07T00:27:12.580Z,20.46
2019-06-07T00:29:44.006Z,20.48
2019-06-07T00:32:18.471Z,20.39
2019-06-07T00:34:47.654Z,20.47
2019-06-07T00:37:22.572Z,20.40
2019-06-07T00:40:12.930Z,20.38
2019-06-07T00:42:24.581Z,20.25
2019-06-07T00:44:55.737Z,20.37
2019-06-07T00:47:26.897Z,20.02
2019-06-07T00:49:58.012Z,20.11
2019-06-07T00:55:04.361Z,19.89
2019-06-07T00:57:35.526Z,20.00
2019-06-07T01:00:09.009Z,20.00
2019-06-07T01:02:40.235Z,20.03
2019-06-07T01:05:15.431Z,19.96
2019-06-07T01:07:44.524Z,20.00
2019-06-07T01:10:42.826Z,19.94
2019-06-07T01:12:50.004Z,19.99
2019-06-07T01:15:29.173Z,20.13
2019-06-07T01:18:33.539Z,20.06
2019-06-07T01:20:31.192Z,20.05
2019-06-07T01:23:02.266Z,19.83
2019-06-07T01:25:33.330Z,19.87
2019-06-07T01:28:04.727Z,20.11
2019-06-07T01:30:36.237Z,20.12
2019-06-07T01:33:07.485Z,20.12
2019-06-07T01:35:38.959Z,20.02
2019-06-07T01:38:11.175Z,19.90
2019-06-07T01:40:42.175Z,19.92
2019-06-07T01:43:13.288Z,19.97
2019-06-07T01:45:44.430Z,20.02
2019-06-07T01:48:19.793Z,19.96
2019-06-07T01:50:48.448Z,19.95
2019-06-07T01:53:25.753Z,19.89
2019-06-07T01:55:55.528Z,19.81
2019-06-07T01:58:29.074Z,19.78
2019-06-07T02:00:59.217Z,19.87
2019-06-07T02:03:33.132Z,19.88
2019-06-07T02:06:03.191Z,19.81
2019-06-07T02:08:34.592Z,19.73
2019-06-07T02:11:06.030Z,19.81
2019-06-07T02:13:37.372Z,19.76
2019-06-07T02:16:09.041Z,19.66
2019-06-07T02:19:00.819Z,19.55
2019-06-07T02:21:12.818Z,19.60
2019-06-07T02:23:43.930Z,19.57
2019-06-07T02:26:15.162Z,19.51
2019-06-07T02:28:46.089Z,19.48
2019-06-07T02:31:17.052Z,19.44
2019-06-07T02:33:48.063Z,19.49
2019-06-07T02:36:19.037Z,19.62
2019-06-07T02:38:49.942Z,19.61
2019-06-07T02:41:25.805Z,19.66
2019-06-07T02:43:53.613Z,19.48
2019-06-07T02:46:35.128Z,19.48
2019-06-07T02:48:59.047Z,19.41
2019-06-07T02:51:35.831Z,19.52
2019-06-07T02:54:02.924Z,19.51
2019-06-07T02:56:44.857Z,19.52
2019-06-07T02:59:06.862Z,19.64
2019-06-07T03:01:42.067Z,19.60
2019-06-07T03:04:12.276Z,19.50
2019-06-07T03:06:45.708Z,19.56
2019-06-07T03:09:19.083Z,19.54
2019-06-07T03:11:54.102Z,19.38
2019-06-07T03:14:28.650Z,19.43
2019-06-07T03:17:03.235Z,19.45
2019-06-07T03:19:40.864Z,19.50
2019-06-07T03:22:12.189Z,19.72
2019-06-07T03:24:46.103Z,19.70
2019-06-07T03:27:41.319Z,19.61
2019-06-07T03:29:50.103Z,19.71
2019-06-07T03:32:21.252Z,19.74
2019-06-07T03:34:58.511Z,19.85
2019-06-07T03:37:30.772Z,20.00
2019-06-07T03:40:02.352Z,20.18
2019-06-07T03:42:34.784Z,20.25
2019-06-07T03:45:08.285Z,20.41
2019-06-07T03:47:42.580Z,20.55
2019-06-07T03:50:12.469Z,20.72
2019-06-07T03:52:43.655Z,20.84
2019-06-07T03:55:14.835Z,21.02
2019-06-07T03:58:29.838Z,21.14
2019-06-07T04:00:19.955Z,21.28
2019-06-07T04:02:50.928Z,21.42
2019-06-07T04:05:22.229Z,21.53
2019-06-07T04:07:53.341Z,21.60
2019-06-07T04:10:44.668Z,21.60
2019-06-07T04:12:57.557Z,21.67
2019-06-07T04:15:28.538Z,21.42
2019-06-07T04:18:02.364Z,21.44
2019-06-07T04:20:34.085Z,21.67
2019-06-07T04:23:24.565Z,21.69
2019-06-07T04:25:42.253Z,21.73
2019-06-07T04:28:11.192Z,21.73
2019-06-07T04:30:44.299Z,21.69
2019-06-07T04:33:16.331Z,21.79
2019-06-07T04:35:47.630Z,21.89
2019-06-07T04:38:18.758Z,21.95
2019-06-07T04:40:51.893Z,22.04
2019-06-07T04:43:23.773Z,21.85
2019-06-07T04:45:57.049Z,22.01
2019-06-07T04:48:33.470Z,22.08
2019-06-07T04:51:05.227Z,22.13
2019-06-07T04:53:38.626Z,22.21
2019-06-07T04:56:09.227Z,22.22
2019-06-07T04:58:41.308Z,22.22
2019-06-07T05:01:26.725Z,22.17
2019-06-07T05:03:45.724Z,21.97
2019-06-07T05:06:16.953Z,22.06
2019-06-07T05:08:48.252Z,22.10
2019-06-07T05:11:19.690Z,21.92
2019-06-07T05:13:51.518Z,21.95
2019-06-07T05:16:23.538Z,21.83
2019-06-07T05:18:55.248Z,21.85
2019-06-07T05:21:46.422Z,21.93
2019-06-07T05:24:09.180Z,21.98
2019-06-07T05:26:33.702Z,22.02
2019-06-07T05:29:05.347Z,22.12
2019-06-07T05:31:39.588Z,22.23
2019-06-07T05:34:09.092Z,22.31
2019-06-07T05:36:44.306Z,22.41
2019-06-07T05:39:12.960Z,22.62
2019-06-07T05:41:44.585Z,22.73
2019-06-07T05:44:15.750Z,22.94
2019-06-07T05:46:47.580Z,23.21
2019-06-07T05:49:18.762Z,23.15
2019-06-07T05:51:49.783Z,23.08
2019-06-07T05:54:21.348Z,23.06
2019-06-07T05:56:52.852Z,23.06
2019-06-07T05:59:24.034Z,23.03
2019-06-07T06:02:02.891Z,23.23
2019-06-07T06:04:28.439Z,23.32
2019-06-07T06:07:00.492Z,23.32
2019-06-07T06:09:31.403Z,23.39
2019-06-07T06:12:02.764Z,23.47
2019-06-07T06:14:35.384Z,23.38
2019-06-07T06:17:06.721Z,23.63
2019-06-07T06:19:40.686Z,23.94
2019-06-07T06:22:10.543Z,24.35
2019-06-07T06:24:48.930Z,24.88
2019-06-07T06:27:55.178Z,25.39
2019-06-07T06:29:50.103Z,25.53
2019-06-07T06:34:53.922Z,25.79
2019-06-07T06:37:25.426Z,25.92
2019-06-07T06:39:56.398Z,26.02
2019-06-07T06:42:27.684Z,26.05
2019-06-07T06:44:59.007Z,25.87
2019-06-07T06:47:30.312Z,25.75
2019-06-07T06:50:02.746Z,25.72
2019-06-07T06:52:34.051Z,25.79
2019-06-07T06:55:08.679Z,25.68
2019-06-07T06:57:41.420Z,25.26
2019-06-07T07:00:15.986Z,25.18
2019-06-07T07:03:41.938Z,24.95
2019-06-07T07:05:20.259Z,24.45
2019-06-07T07:07:52.998Z,24.59
2019-06-07T07:10:43.252Z,24.71
2019-06-07T07:13:15.248Z,25.07
2019-06-07T07:15:50.979Z,25.27
2019-06-07T07:18:20.796Z,25.73
2019-06-07T07:20:56.802Z,26.17
2019-06-07T07:23:25.019Z,26.55
2019-06-07T07:25:59.282Z,26.84
2019-06-07T07:28:28.922Z,27.28
2019-06-07T07:31:00.742Z,27.46
2019-06-07T07:34:20.763Z,27.49
2019-06-07T07:36:28.160Z,27.39
2019-06-07T07:38:37.950Z,27.19
2019-06-07T07:41:15.693Z,27.01
2019-06-07T07:43:41.941Z,27.14
2019-06-07T07:46:30.437Z,27.30
2019-06-07T07:48:48.544Z,27.37
2019-06-07T07:51:19.779Z,27.36
2019-06-07T07:54:08.355Z,27.51
2019-06-07T07:56:23.966Z,27.71
2019-06-07T07:59:01.473Z,27.93
2019-06-07T08:01:27.904Z,28.14
2019-06-07T08:03:59.959Z,28.61
2019-06-07T08:06:30.979Z,28.98
2019-06-07T08:09:02.270Z,29.18
2019-06-07T08:11:33.427Z,29.66
2019-06-07T08:14:04.468Z,29.72
2019-06-07T08:16:35.531Z,29.70
2019-06-07T08:19:06.887Z,29.88
2019-06-07T08:21:38.746Z,30.16
2019-06-07T08:24:10.806Z,29.69
2019-06-07T08:26:42.005Z,29.96
2019-06-07T08:29:13.047Z,29.82
2019-06-07T08:31:45.041Z,29.72
2019-06-07T08:34:16.125Z,30.29
2019-06-07T08:36:48.024Z,30.60
2019-06-07T08:39:19.883Z,30.42
2019-06-07T08:41:59.265Z,29.43
2019-06-07T08:44:25.699Z,28.17
2019-06-07T08:47:14.905Z,27.82
2019-06-07T08:49:29.429Z,28.21
2019-06-07T08:52:07.917Z,28.40
2019-06-07T08:54:33.566Z,27.85
2019-06-07T08:57:20.127Z,27.25
2019-06-07T08:59:37.414Z,26.91
2019-06-07T09:02:22.826Z,26.41
2019-06-07T09:04:41.343Z,25.88
2019-06-07T09:07:19.482Z,25.25
2019-06-07T09:09:45.609Z,25.48
2019-06-07T09:12:18.277Z,25.22
2019-06-07T09:15:06.322Z,24.95
2019-06-07T09:17:22.446Z,25.22
2019-06-07T09:19:54.142Z,25.61
2019-06-07T09:22:26.367Z,25.63
2019-06-07T09:25:02.812Z,26.48
2019-06-07T09:27:30.659Z,27.21
2019-06-07T09:30:07.681Z,27.62
2019-06-07T09:32:34.969Z,27.78
2019-06-07T09:35:16.838Z,28.22
2019-06-07T09:40:27.437Z,28.63
2019-06-07T09:43:38.218Z,28.81
2019-06-07T09:45:26.882Z,29.76
2019-06-07T09:48:02.301Z,30.47
2019-06-07T09:50:32.457Z,31.31
2019-06-07T09:53:16.203Z,32.19
2019-06-07T09:55:37.074Z,32.58
2019-06-07T09:58:48.345Z,32.89
2019-06-07T10:00:42.788Z,33.18
2019-06-07T10:03:21.368Z,34.02
2019-06-07T10:05:48.430Z,32.63
2019-06-07T10:09:31.513Z,34.67
2019-06-07T10:10:52.807Z,35.47
2019-06-07T10:13:24.340Z,35.51
2019-06-07T10:15:56.484Z,35.17
2019-06-07T10:18:29.110Z,35.50
2019-06-07T10:21:01.411Z,35.33
2019-06-07T10:23:33.080Z,34.20
2019-06-07T10:26:05.969Z,34.09
2019-06-07T10:28:37.929Z,33.91
2019-06-07T10:31:11.070Z,34.02
2019-06-07T10:33:42.158Z,33.92
2019-06-07T10:36:13.323Z,33.64
2019-06-07T10:38:44.292Z,33.34
2019-06-07T10:41:16.196Z,33.03
2019-06-07T10:43:47.727Z,32.75
2019-06-07T10:46:18.843Z,32.67
2019-06-07T10:48:50.221Z,32.57
2019-06-07T10:51:21.750Z,32.54
2019-06-07T10:53:52.803Z,32.79
2019-06-07T10:56:23.776Z,32.83
2019-06-07T10:58:55.085Z,33.06
2019-06-07T11:01:26.237Z,33.02
2019-06-07T11:03:57.771Z,32.94
2019-06-07T11:06:28.786Z,32.47
2019-06-07T11:08:59.963Z,32.71
2019-06-07T11:11:31.066Z,32.82
2019-06-07T11:14:02.356Z,32.91
2019-06-07T11:16:33.388Z,33.12
2019-06-07T11:19:06.051Z,32.60
2019-06-07T11:21:37.283Z,32.73
2019-06-07T11:24:08.452Z,33.07
2019-06-07T11:26:39.779Z,33.01
2019-06-07T11:29:11.035Z,33.08
2019-06-07T11:31:46.646Z,33.13
2019-06-07T11:34:16.294Z,33.25
2019-06-07T11:36:50.448Z,33.55
2019-06-07T11:39:20.403Z,33.73
2019-06-07T11:41:51.655Z,33.57
2019-06-07T11:44:22.734Z,33.65
2019-06-07T11:46:54.075Z,33.27
2019-06-07T11:49:26.616Z,33.31
2019-06-07T11:51:57.945Z,32.98
2019-06-07T11:54:28.974Z,32.73
2019-06-07T11:57:00.141Z,32.72
2019-06-07T11:59:31.272Z,32.98
2019-06-07T12:02:02.218Z,33.27
2019-06-07T12:04:35.143Z,32.19
2019-06-07T12:07:06.312Z,32.72
2019-06-07T12:09:37.576Z,32.94
2019-06-07T12:12:08.690Z,32.00
2019-06-07T12:14:39.944Z,32.12
2019-06-07T12:17:11.274Z,32.49
2019-06-07T12:19:42.441Z,32.23
2019-06-07T12:22:14.076Z,32.27
2019-06-07T12:24:45.390Z,32.12
2019-06-07T12:27:16.992Z,31.64
2019-06-07T12:29:48.013Z,31.72
2019-06-07T12:32:19.900Z,31.95
2019-06-07T12:34:51.198Z,31.52
2019-06-07T12:37:39.232Z,31.81
2019-06-07T12:39:56.074Z,32.05
2019-06-07T12:42:27.403Z,31.82
2019-06-07T12:44:58.549Z,31.44
2019-06-07T12:47:29.910Z,31.29
2019-06-07T12:50:01.135Z,31.40
2019-06-07T12:52:32.395Z,31.33
2019-06-07T12:55:04.703Z,31.44
2019-06-07T12:57:35.938Z,31.25
2019-06-07T13:00:13.931Z,30.83
2019-06-07T13:02:45.389Z,30.97
2019-06-07T13:05:17.851Z,31.24
2019-06-07T13:07:49.081Z,31.64
2019-06-07T13:10:22.073Z,31.94
2019-06-07T13:12:53.393Z,31.52
2019-06-07T13:15:26.034Z,31.76
2019-06-07T13:17:57.823Z,31.20
2019-06-07T13:20:29.208Z,31.37
2019-06-07T13:23:00.337Z,31.22
2019-06-07T13:25:45.493Z,31.31
2019-06-07T13:28:05.101Z,31.42
2019-06-07T13:30:36.639Z,31.50
2019-06-07T13:33:07.990Z,31.55
2019-06-07T13:35:39.159Z,31.57
2019-06-07T13:38:11.993Z,31.52
2019-06-07T13:40:43.150Z,31.47
2019-06-07T13:43:14.315Z,31.50
2019-06-07T13:45:45.487Z,31.62
2019-06-07T13:48:17.107Z,31.74
2019-06-07T13:50:48.688Z,31.45
2019-06-07T13:53:20.694Z,31.27
2019-06-07T13:55:51.763Z,31.22
2019-06-07T13:58:24.149Z,31.27
2019-06-07T14:00:55.578Z,31.12
2019-06-07T14:03:30.782Z,31.11
2019-06-07T14:05:59.629Z,30.94
2019-06-07T14:08:30.768Z,30.89
2019-06-07T14:11:03.039Z,30.92
2019-06-07T14:13:34.206Z,30.97
2019-06-07T14:16:05.809Z,30.85
2019-06-07T14:18:36.998Z,31.01
2019-06-07T14:21:08.319Z,30.99
2019-06-07T14:23:48.837Z,31.37
2019-06-07T14:26:12.678Z,31.32
2019-06-07T14:28:43.883Z,31.11
2019-06-07T14:31:15.088Z,30.94
2019-06-07T14:33:46.146Z,30.98
2019-06-07T14:36:17.297Z,30.82
2019-06-07T14:38:49.090Z,30.87
2019-06-07T14:41:20.090Z,30.19
2019-06-07T14:43:51.275Z,30.01
2019-06-07T14:46:23.528Z,30.20
2019-06-07T14:48:54.965Z,30.05
2019-06-07T14:51:26.404Z,30.25
2019-06-07T14:53:57.751Z,30.23
2019-06-07T14:56:31.371Z,30.02
2019-06-07T14:59:02.578Z,29.99
2019-06-07T15:01:35.469Z,29.99
2019-06-07T15:04:06.877Z,29.93
2019-06-07T15:06:38.963Z,30.00
2019-06-07T15:09:10.115Z,30.00
2019-06-07T15:11:41.378Z,29.78
2019-06-07T15:14:12.307Z,29.95
2019-06-07T15:16:43.315Z,29.78
2019-06-07T15:19:14.399Z,29.90
2019-06-07T15:21:45.422Z,29.61
2019-06-07T15:24:16.671Z,29.71
2019-06-07T15:26:47.734Z,29.72
2019-06-07T15:29:19.014Z,29.74
2019-06-07T15:31:50.232Z,29.66
2019-06-07T15:34:21.393Z,29.56
2019-06-07T15:36:52.422Z,29.44
2019-06-07T15:39:23.487Z,29.45
2019-06-07T15:41:54.471Z,29.50
2019-06-07T15:44:25.404Z,29.43
2019-06-07T15:46:56.394Z,29.36
2019-06-07T15:49:27.777Z,29.43
2019-06-07T15:51:58.764Z,29.33
2019-06-07T15:54:30.306Z,29.28
2019-06-07T15:57:01.542Z,29.33
2019-06-07T15:59:33.169Z,29.36
2019-06-07T16:02:04.621Z,29.43
2019-06-07T16:04:35.992Z,29.38
2019-06-07T16:07:07.130Z,29.44
2019-06-07T16:09:38.502Z,29.45
2019-06-07T16:12:09.744Z,29.46
2019-06-07T16:14:41.145Z,29.45
2019-06-07T16:17:12.402Z,29.32
2019-06-07T16:19:46.472Z,29.18
2019-06-07T16:22:16.286Z,29.12
2019-06-07T16:24:47.446Z,29.02
2019-06-07T16:27:20.090Z,29.04
2019-06-07T16:29:51.064Z,28.95
2019-06-07T16:32:22.282Z,28.92
2019-06-07T16:34:53.478Z,28.94
2019-06-07T16:37:24.564Z,28.96
2019-06-07T16:39:55.713Z,28.99
2019-06-07T16:42:27.511Z,29.00
2019-06-07T16:44:58.579Z,29.01
2019-06-07T16:47:29.629Z,29.00
2019-06-07T16:50:00.910Z,28.86
2019-06-07T16:52:32.405Z,28.81
2019-06-07T16:55:03.856Z,28.74
2019-06-07T16:57:36.566Z,28.75
2019-06-07T17:00:12.603Z,28.66
2019-06-07T17:02:44.990Z,28.42
2019-06-07T17:05:18.143Z,28.38
2019-06-07T17:07:49.147Z,28.38
2019-06-07T17:10:20.665Z,28.36
2019-06-07T17:12:52.022Z,28.25
2019-06-07T17:15:23.664Z,28.29
2019-06-07T17:17:54.833Z,28.35
2019-06-07T17:20:26.164Z,28.33
2019-06-07T17:22:57.120Z,28.29
2019-06-07T17:25:28.176Z,28.28
2019-06-07T17:27:59.411Z,28.22
2019-06-07T17:30:30.638Z,28.21
2019-06-07T17:33:01.703Z,28.18
2019-06-07T17:35:32.774Z,28.17
2019-06-07T17:38:04.095Z,28.19
2019-06-07T17:40:35.537Z,28.19
2019-06-07T17:43:06.767Z,28.14
2019-06-07T17:45:38.315Z,28.11
2019-06-07T17:48:09.597Z,28.08
2019-06-07T17:50:41.632Z,28.04
2019-06-07T17:53:14.383Z,28.01
2019-06-07T17:55:46.190Z,27.95
2019-06-07T17:58:17.492Z,27.92
2019-06-07T18:00:53.830Z,27.86
2019-06-07T18:03:24.971Z,27.76
2019-06-07T18:05:56.088Z,27.70
2019-06-07T18:08:27.732Z,27.58
2019-06-07T18:10:59.242Z,27.51
2019-06-07T18:13:32.209Z,27.39
2019-06-07T18:16:03.305Z,27.29
2019-06-07T18:18:34.350Z,27.17
2019-06-07T18:21:05.688Z,27.08
2019-06-07T18:23:37.207Z,27.02
2019-06-07T18:26:08.336Z,26.97
2019-06-07T18:28:39.656Z,26.91
2019-06-07T18:31:11.050Z,26.83
2019-06-07T18:33:42.094Z,26.80
2019-06-07T18:36:13.037Z,26.74
2019-06-07T18:38:44.158Z,26.68
2019-06-07T18:41:15.217Z,26.61
2019-06-07T18:43:47.062Z,26.51
2019-06-07T18:46:18.290Z,26.42
2019-06-07T18:48:50.580Z,26.33
2019-06-07T18:51:21.817Z,26.24
2019-06-07T18:53:53.710Z,26.17
2019-06-07T18:56:24.867Z,26.08
2019-06-07T18:58:56.084Z,26.04
2019-06-07T19:01:27.253Z,26.01
2019-06-07T19:03:58.289Z,25.96
2019-06-07T19:06:29.377Z,25.92
2019-06-07T19:09:01.129Z,25.91
2019-06-07T19:11:32.016Z,25.85
2019-06-07T19:14:03.254Z,25.83
2019-06-07T19:16:34.363Z,25.75
2019-06-07T19:19:05.429Z,25.67
2019-06-07T19:21:36.517Z,25.59
2019-06-07T19:24:07.635Z,25.52
2019-06-07T19:26:38.688Z,25.45
2019-06-07T19:29:09.738Z,25.38
2019-06-07T19:31:40.791Z,25.36
2019-06-07T19:34:12.555Z,25.34
2019-06-07T19:36:49.007Z,25.34
2019-06-07T19:39:19.304Z,25.32
2019-06-07T19:41:51.807Z,25.27
2019-06-07T19:44:23.167Z,25.26
2019-06-07T19:46:54.341Z,25.22
2019-06-07T19:49:25.531Z,25.14
2019-06-07T19:51:57.017Z,25.10
2019-06-07T19:54:28.411Z,25.06
2019-06-07T19:56:59.493Z,25.04
2019-06-07T19:59:30.514Z,24.99
2019-06-07T20:02:02.179Z,24.93
2019-06-07T20:04:33.533Z,24.89
2019-06-07T20:07:05.707Z,24.86
2019-06-07T20:09:37.381Z,24.86
2019-06-07T20:12:08.336Z,24.86
2019-06-07T20:14:39.511Z,24.85
2019-06-07T20:17:10.833Z,24.83
2019-06-07T20:19:42.140Z,24.78
2019-06-07T20:22:13.297Z,24.74
2019-06-07T20:24:44.390Z,24.72
2019-06-07T20:27:15.722Z,24.69
2019-06-07T20:29:46.840Z,24.68
2019-06-07T20:32:17.843Z,24.69
2019-06-07T20:34:49.089Z,24.72
2019-06-07T20:37:20.208Z,24.72
2019-06-07T20:39:51.223Z,24.63
2019-06-07T20:42:22.433Z,24.55
2019-06-07T20:44:53.719Z,24.47
2019-06-07T20:47:24.906Z,24.40
2019-06-07T20:49:55.910Z,24.41
2019-06-07T20:52:27.004Z,24.44
2019-06-07T20:54:58.461Z,24.48
2019-06-07T20:57:29.907Z,24.52
2019-06-07T21:00:09.888Z,24.54
2019-06-07T21:02:33.867Z,24.56
2019-06-07T21:05:07.607Z,24.57
2019-06-07T21:07:38.646Z,24.57
2019-06-07T21:10:11.306Z,24.53
2019-06-07T21:12:43.045Z,24.54
2019-06-07T21:15:14.798Z,24.52
2019-06-07T21:17:46.224Z,24.46
2019-06-07T21:20:17.276Z,24.46
2019-06-07T21:22:48.232Z,24.44
2019-06-07T21:25:20.758Z,24.43
2019-06-07T21:27:51.922Z,24.41
2019-06-07T21:30:23.783Z,24.40
2019-06-07T21:32:55.031Z,24.37
2019-06-07T21:35:26.308Z,24.35
2019-06-07T21:37:57.277Z,24.33
2019-06-07T21:40:28.679Z,24.32
2019-06-07T21:42:59.832Z,24.31
2019-06-07T21:45:30.866Z,24.27
2019-06-07T21:48:03.738Z,24.23
2019-06-07T21:50:34.675Z,24.19
2019-06-07T21:53:06.563Z,24.13
2019-06-07T21:55:37.785Z,24.10
2019-06-07T21:58:09.111Z,24.07
2019-06-07T22:00:59.898Z,24.03
2019-06-07T22:03:30.982Z,24.00
2019-06-07T22:06:03.367Z,23.95
2019-06-07T22:08:34.927Z,23.91
2019-06-07T22:11:06.217Z,23.88
2019-06-07T22:13:37.430Z,23.82
2019-06-07T22:16:25.620Z,23.80
2019-06-07T22:18:41.888Z,23.79
2019-06-07T22:21:13.169Z,23.75
2019-06-07T22:23:45.010Z,23.73
2019-06-07T22:26:16.324Z,23.67
2019-06-07T22:28:47.608Z,23.63
2019-06-07T22:31:19.291Z,23.60
2019-06-07T22:33:50.771Z,23.55
2019-06-07T22:36:21.922Z,23.49
2019-06-07T22:38:52.941Z,23.48
2019-06-07T22:41:24.309Z,23.46
2019-06-07T22:43:55.200Z,23.36
2019-06-07T22:46:36.824Z,23.27
2019-06-07T22:48:59.070Z,23.23
2019-06-07T22:51:30.272Z,23.18
2019-06-07T22:54:01.553Z,23.11
2019-06-07T22:56:34.492Z,23.04
2019-06-07T22:59:05.732Z,23.03
2019-06-07T23:01:36.851Z,22.96
2019-06-07T23:04:08.434Z,22.89
2019-06-07T23:06:39.943Z,22.77
2019-06-07T23:09:12.864Z,22.67
2019-06-07T23:11:44.056Z,22.56
2019-06-07T23:14:15.375Z,22.71
2019-06-07T23:16:55.597Z,22.71
2019-06-07T23:19:20.483Z,22.71
2019-06-07T23:21:51.769Z,22.74
2019-06-07T23:24:22.741Z,22.74
2019-06-07T23:26:54.124Z,22.72
2019-06-07T23:29:26.664Z,22.71
2019-06-07T23:31:58.140Z,22.62
2019-06-07T23:34:29.539Z,22.63
2019-06-07T23:37:00.735Z,22.68
2019-06-07T23:39:31.773Z,22.63
2019-06-07T23:42:02.929Z,22.66
2019-06-07T23:44:34.145Z,22.62
2019-06-07T23:47:11.193Z,22.65
2019-06-07T23:49:38.356Z,22.66
2019-06-07T23:52:09.503Z,22.63
2019-06-07T23:54:40.706Z,22.56
2019-06-07T23:57:12.143Z,22.61
2019-06-07T23:59:43.482Z,22.51
